Boardwalk — ZGAQ7 — position and weather

sailwx.info

Track history (hours):
 
Tides and Currents Weather Stations Pressure Air Temp Water Temp Dewpoint Dewpoint Depression Visibility Wind Speed Wind Dir Waves Ship Positions

Boardwalk

Last reported at 2017-Sep-05 07:25 UTC. Time now 2017-Nov-21 17:44 UTC.
Position N 48°08' W 123°27'.
Warning: this ship's position is months out of date.

Length 50 m; draft 2.7 m.

Type: Pleasure craft. MMSI: 319031900.

Date/timePositionNaut miles runAvg speedWind from/ knotsBaromVisibWave heightAir tempDewpointWater temp
2017-Sep-05 07:25N 48°08' W 123°27'0 0.0
2017-Sep-04 10:14N 48°08' W 123°27'0 0.0
2017-Sep-04 10:00N 48°08' W 123°27'0 0.0
2017-Sep-04 08:23N 48°08' W 123°27'0 0.0
2017-Sep-04 07:53N 48°08' W 123°27'0 0.0
2017-Sep-04 06:12N 48°08' W 123°27'0 0.0
2017-Sep-04 06:00N 48°08' W 123°27'0 0.0
2017-Sep-04 05:30N 48°08' W 123°27'0 0.0
2017-Sep-04 05:00N 48°08' W 123°27'0 0.0
2017-Sep-03 19:34N 48°08' W 123°27'0 1.8
2017-Sep-03 19:30N 48°08' W 123°27'3 5.9
2017-Sep-03 19:00N 48°11' W 123°27'917.1
2017-Sep-03 18:30N 48°13' W 123°39'916.0
2017-Sep-03 17:58N 48°13' W 123°52'815.8
2017-Sep-03 17:28N 48°15' W 124°03'716.0
2017-Sep-03 17:00N 48°18' W 124°14'815.5
2017-Sep-03 16:30N 48°22' W 124°24'714.8
2017-Sep-03 16:00N 48°25' W 124°34'714.1
2017-Sep-03 15:31N 48°28' W 124°43'1018.8
2017-Sep-03 15:00N 48°28' W 124°58'7914.6
2017-Sep-03 09:37N 47°10' W 125°02'215.7
2017-Sep-03 09:30N 47°08' W 125°02'816.0
2017-Sep-03 09:00N 47°00' W 125°02'816.4
2017-Sep-03 08:30N 46°52' W 125°01'816.5
2017-Sep-03 08:00N 46°44' W 125°00'816.4
2017-Sep-03 07:30N 46°36' W 124°59'816.5
2017-Sep-03 07:00N 46°27' W 124°58'1019.4
2017-Sep-03 06:30N 46°18' W 124°57'1019.7
2017-Sep-03 06:00N 46°08' W 124°56'1019.5
2017-Sep-03 05:30N 45°58' W 124°56'1019.2
2017-Sep-03 05:00N 45°49' W 124°55'1019.2
2017-Sep-03 04:30N 45°39' W 124°55'1019.2
2017-Sep-03 04:00N 45°29' W 124°55'919.1
2017-Sep-03 03:31N 45°20' W 124°57'918.9
2017-Sep-03 03:00N 45°11' W 124°57'918.6
2017-Sep-03 02:30N 45°01' W 124°58'815.5
2017-Sep-03 02:00N 44°54' W 124°59'815.7
2017-Sep-03 01:30N 44°46' W 124°58'815.9
2017-Sep-03 01:00N 44°38' W 124°58'816.0
2017-Sep-03 00:30N 44°30' W 124°59'816.1
2017-Sep-03 00:00N 44°22' W 124°58'816.2
2017-Sep-02 23:30N 44°14' W 124°57'816.0
2017-Sep-02 23:00N 44°06' W 124°57'815.8
2017-Sep-02 22:30N 43°58' W 124°57'816.0
2017-Sep-02 22:00N 43°50' W 124°57'32116.0
2017-Sep-02 01:57N 38°31' W 124°02'716.6
2017-Sep-02 01:30N 38°25' W 123°57'816.8
2017-Sep-02 01:00N 38°17' W 123°53'816.2
2017-Sep-02 00:30N 38°10' W 123°48'816.1
2017-Sep-02 00:00N 38°03' W 123°43'4116.1
2017-Sep-01 21:29N 37°27' W 123°18'816.3
2017-Sep-01 21:00N 37°20' W 123°14'816.4
2017-Sep-01 20:30N 37°13' W 123°09'816.3
2017-Sep-01 20:00N 37°06' W 123°05'816.5
2017-Sep-01 19:30N 36°58' W 122°60'816.3
2017-Sep-01 19:00N 36°51' W 122°55'816.3
2017-Sep-01 18:30N 36°44' W 122°51'816.1
2017-Sep-01 18:00N 36°37' W 122°46'815.9
2017-Sep-01 17:30N 36°30' W 122°41'1015.8
2017-Sep-01 16:51N 36°20' W 122°35'3216.2
2017-Sep-01 14:52N 35°52' W 122°17'1916.4
2017-Sep-01 13:43N 35°37' W 122°03'316.4
2017-Sep-01 13:30N 35°34' W 121°60'816.3
2017-Sep-01 13:00N 35°28' W 121°53'1016.2
2017-Sep-01 12:25N 35°21' W 121°46'716.2
2017-Sep-01 12:00N 35°16' W 121°40'816.3
2017-Sep-01 11:30N 35°10' W 121°34'816.9
2017-Sep-01 11:00N 35°03' W 121°28'816.9
2017-Sep-01 10:30N 34°57' W 121°21'816.7
2017-Sep-01 10:00N 34°50' W 121°15'816.4
2017-Sep-01 09:30N 34°44' W 121°09'816.2
2017-Sep-01 09:00N 34°37' W 121°03'816.0
2017-Sep-01 08:30N 34°31' W 120°56'815.7
2017-Sep-01 08:00N 34°26' W 120°48'815.8
2017-Sep-01 07:30N 34°24' W 120°39'816.3
2017-Sep-01 07:00N 34°21' W 120°30'816.4
2017-Sep-01 06:30N 34°19' W 120°21'816.8
2017-Sep-01 06:00N 34°17' W 120°11'816.6
2017-Sep-01 05:30N 34°15' W 120°01'816.0
2017-Sep-01 05:00N 34°13' W 119°52'816.2
2017-Sep-01 04:30N 34°11' W 119°42'816.1
2017-Sep-01 04:00N 34°09' W 119°33'815.9
2017-Sep-01 03:30N 34°06' W 119°24'816.0
2017-Sep-01 03:00N 34°04' W 119°14'816.4
2017-Sep-01 02:30N 34°01' W 119°05'816.2
2017-Sep-01 02:00N 33°59' W 118°56'1616.3
2017-Sep-01 01:00N 33°58' W 118°36'7 0.2
2017-Aug-30 18:49N 33°58' W 118°28'1 2.7
2017-Aug-30 18:30N 33°58' W 118°29'  
2017-Aug-27 07:35N 33°58' W 118°27'  
Track history (hours):
 
Tides and Currents Weather Stations Pressure Air Temp Water Temp Dewpoint Dewpoint Depression Visibility Wind Speed Wind Dir Waves Ship Positions

Boardwalk

Last reported at 2017-Sep-05 07:25 UTC. Time now 2017-Nov-21 17:44 UTC.
Position N 48°08' W 123°27'.
Warning: this ship's position is months out of date.

Length 50 m; draft 2.7 m.

Type: Pleasure craft. MMSI: 319031900.

Date/timePositionNaut miles runAvg speedWind from/ knotsBaromVisibWave heightAir tempDewpointWater temp
2017-Sep-05 07:25N 48°08' W 123°27'0 0.0
2017-Sep-04 10:14N 48°08' W 123°27'0 0.0
2017-Sep-04 10:00N 48°08' W 123°27'0 0.0
2017-Sep-04 08:23N 48°08' W 123°27'0 0.0
2017-Sep-04 07:53N 48°08' W 123°27'0 0.0
2017-Sep-04 06:12N 48°08' W 123°27'0 0.0
2017-Sep-04 06:00N 48°08' W 123°27'0 0.0
2017-Sep-04 05:30N 48°08' W 123°27'0 0.0
2017-Sep-04 05:00N 48°08' W 123°27'0 0.0
2017-Sep-03 19:34N 48°08' W 123°27'0 1.8
2017-Sep-03 19:30N 48°08' W 123°27'3 5.9
2017-Sep-03 19:00N 48°11' W 123°27'917.1
2017-Sep-03 18:30N 48°13' W 123°39'916.0
2017-Sep-03 17:58N 48°13' W 123°52'815.8
2017-Sep-03 17:28N 48°15' W 124°03'716.0
2017-Sep-03 17:00N 48°18' W 124°14'815.5
2017-Sep-03 16:30N 48°22' W 124°24'714.8
2017-Sep-03 16:00N 48°25' W 124°34'714.1
2017-Sep-03 15:31N 48°28' W 124°43'1018.8
2017-Sep-03 15:00N 48°28' W 124°58'7914.6
2017-Sep-03 09:37N 47°10' W 125°02'215.7
2017-Sep-03 09:30N 47°08' W 125°02'816.0
2017-Sep-03 09:00N 47°00' W 125°02'816.4
2017-Sep-03 08:30N 46°52' W 125°01'816.5
2017-Sep-03 08:00N 46°44' W 125°00'816.4
2017-Sep-03 07:30N 46°36' W 124°59'816.5
2017-Sep-03 07:00N 46°27' W 124°58'1019.4
2017-Sep-03 06:30N 46°18' W 124°57'1019.7
2017-Sep-03 06:00N 46°08' W 124°56'1019.5
2017-Sep-03 05:30N 45°58' W 124°56'1019.2
2017-Sep-03 05:00N 45°49' W 124°55'1019.2
2017-Sep-03 04:30N 45°39' W 124°55'1019.2
2017-Sep-03 04:00N 45°29' W 124°55'919.1
2017-Sep-03 03:31N 45°20' W 124°57'918.9
2017-Sep-03 03:00N 45°11' W 124°57'918.6
2017-Sep-03 02:30N 45°01' W 124°58'815.5
2017-Sep-03 02:00N 44°54' W 124°59'815.7
2017-Sep-03 01:30N 44°46' W 124°58'815.9
2017-Sep-03 01:00N 44°38' W 124°58'816.0
2017-Sep-03 00:30N 44°30' W 124°59'816.1
2017-Sep-03 00:00N 44°22' W 124°58'816.2
2017-Sep-02 23:30N 44°14' W 124°57'816.0
2017-Sep-02 23:00N 44°06' W 124°57'815.8
2017-Sep-02 22:30N 43°58' W 124°57'816.0
2017-Sep-02 22:00N 43°50' W 124°57'32116.0
2017-Sep-02 01:57N 38°31' W 124°02'716.6
2017-Sep-02 01:30N 38°25' W 123°57'816.8
2017-Sep-02 01:00N 38°17' W 123°53'816.2
2017-Sep-02 00:30N 38°10' W 123°48'816.1
2017-Sep-02 00:00N 38°03' W 123°43'4116.1
2017-Sep-01 21:29N 37°27' W 123°18'816.3
2017-Sep-01 21:00N 37°20' W 123°14'816.4
2017-Sep-01 20:30N 37°13' W 123°09'816.3
2017-Sep-01 20:00N 37°06' W 123°05'816.5
2017-Sep-01 19:30N 36°58' W 122°60'816.3
2017-Sep-01 19:00N 36°51' W 122°55'816.3
2017-Sep-01 18:30N 36°44' W 122°51'816.1
2017-Sep-01 18:00N 36°37' W 122°46'815.9
2017-Sep-01 17:30N 36°30' W 122°41'1015.8
2017-Sep-01 16:51N 36°20' W 122°35'3216.2
2017-Sep-01 14:52N 35°52' W 122°17'1916.4
2017-Sep-01 13:43N 35°37' W 122°03'316.4
2017-Sep-01 13:30N 35°34' W 121°60'816.3
2017-Sep-01 13:00N 35°28' W 121°53'1016.2
2017-Sep-01 12:25N 35°21' W 121°46'716.2
2017-Sep-01 12:00N 35°16' W 121°40'816.3
2017-Sep-01 11:30N 35°10' W 121°34'816.9
2017-Sep-01 11:00N 35°03' W 121°28'816.9
2017-Sep-01 10:30N 34°57' W 121°21'816.7
2017-Sep-01 10:00N 34°50' W 121°15'816.4
2017-Sep-01 09:30N 34°44' W 121°09'816.2
2017-Sep-01 09:00N 34°37' W 121°03'816.0
2017-Sep-01 08:30N 34°31' W 120°56'815.7
2017-Sep-01 08:00N 34°26' W 120°48'815.8
2017-Sep-01 07:30N 34°24' W 120°39'816.3
2017-Sep-01 07:00N 34°21' W 120°30'816.4
2017-Sep-01 06:30N 34°19' W 120°21'816.8
2017-Sep-01 06:00N 34°17' W 120°11'816.6
2017-Sep-01 05:30N 34°15' W 120°01'816.0
2017-Sep-01 05:00N 34°13' W 119°52'816.2
2017-Sep-01 04:30N 34°11' W 119°42'816.1
2017-Sep-01 04:00N 34°09' W 119°33'815.9
2017-Sep-01 03:30N 34°06' W 119°24'816.0
2017-Sep-01 03:00N 34°04' W 119°14'816.4
2017-Sep-01 02:30N 34°01' W 119°05'816.2
2017-Sep-01 02:00N 33°59' W 118°56'1616.3
2017-Sep-01 01:00N 33°58' W 118°36'7 0.2
2017-Aug-30 18:49N 33°58' W 118°28'1 2.7
2017-Aug-30 18:30N 33°58' W 118°29'  
2017-Aug-27 07:35N 33°58' W 118°27'  

Dump ship's entire track history